createdAt,value
2023-05-10T00:01:55.445Z,37.20
2023-05-10T00:04:42.478Z,37.16
2023-05-10T00:07:29.148Z,37.27
2023-05-10T00:10:16.181Z,37.19
2023-05-10T00:13:03.163Z,37.37
2023-05-10T00:15:49.922Z,37.25
2023-05-10T00:18:36.608Z,37.11
2023-05-10T00:21:23.351Z,37.08
2023-05-10T00:24:10.088Z,37.31
2023-05-10T00:26:56.785Z,37.44
2023-05-10T00:29:43.446Z,37.37
2023-05-10T00:32:30.224Z,37.49
2023-05-10T00:35:17.048Z,37.48
2023-05-10T00:38:03.732Z,37.44
2023-05-10T00:40:50.847Z,37.33
2023-05-10T00:43:37.515Z,37.34
2023-05-10T00:46:24.287Z,37.55
2023-05-10T00:49:11.006Z,37.45
2023-05-10T00:51:58.067Z,37.44
2023-05-10T00:54:44.791Z,37.53
2023-05-10T00:57:31.489Z,37.50
2023-05-10T01:00:19.246Z,37.34
2023-05-10T01:03:06.059Z,37.50
2023-05-10T01:05:52.832Z,37.59
2023-05-10T01:08:39.826Z,37.52
2023-05-10T01:11:26.749Z,37.62
2023-05-10T01:14:13.538Z,37.78
2023-05-10T01:17:00.231Z,37.59
2023-05-10T01:19:47.068Z,37.69
2023-05-10T01:22:46.023Z,37.73
2023-05-10T01:25:51.630Z,37.77
2023-05-10T01:28:56.101Z,37.59
2023-05-10T01:31:57.006Z,37.81
2023-05-10T01:34:46.033Z,37.80
2023-05-10T01:37:52.984Z,37.84
2023-05-10T01:40:59.942Z,38.02
2023-05-10T01:43:52.868Z,37.89
2023-05-10T01:46:39.944Z,38.07
2023-05-10T01:49:28.155Z,38.20
2023-05-10T01:52:15.340Z,38.13
2023-05-10T01:55:03.413Z,38.18
2023-05-10T01:57:52.424Z,38.01
2023-05-10T02:00:41.023Z,38.30
2023-05-10T02:03:28.234Z,38.07
2023-05-10T02:06:15.406Z,38.27
2023-05-10T02:09:02.403Z,38.52
2023-05-10T02:11:49.330Z,38.48
2023-05-10T02:14:37.188Z,38.18
2023-05-10T02:17:24.174Z,38.31
2023-05-10T02:20:11.333Z,38.47
2023-05-10T02:22:58.231Z,38.56
2023-05-10T02:25:45.036Z,38.81
2023-05-10T02:28:31.773Z,38.48
2023-05-10T02:31:18.644Z,38.96
2023-05-10T02:34:05.339Z,38.49
2023-05-10T02:36:52.053Z,38.80
2023-05-10T02:39:39.448Z,38.59
2023-05-10T02:42:27.230Z,38.61
2023-05-10T02:45:14.632Z,38.81
2023-05-10T02:48:01.598Z,38.80
2023-05-10T02:50:52.208Z,39.13
2023-05-10T02:53:39.687Z,39.02
2023-05-10T02:56:26.862Z,39.39
2023-05-10T02:59:13.621Z,39.17
2023-05-10T03:02:01.341Z,39.53
2023-05-10T03:04:48.214Z,39.50
2023-05-10T03:07:34.934Z,39.59
2023-05-10T03:10:22.977Z,39.92
2023-05-10T03:13:27.512Z,39.73
2023-05-10T03:16:16.526Z,39.83
2023-05-10T03:19:08.019Z,39.94
2023-05-10T03:21:55.298Z,40.30
2023-05-10T03:24:42.216Z,40.26
2023-05-10T03:27:28.971Z,40.08
2023-05-10T03:30:16.022Z,40.43
2023-05-10T03:33:08.828Z,40.63
2023-05-10T03:35:55.586Z,40.65
2023-05-10T03:38:42.366Z,40.78
2023-05-10T03:41:29.585Z,41.05
2023-05-10T03:44:16.268Z,41.35
2023-05-10T03:47:03.100Z,41.14
2023-05-10T03:49:49.891Z,41.35
2023-05-10T03:52:36.686Z,41.45
2023-05-10T03:55:23.657Z,41.62
2023-05-10T03:58:13.272Z,41.54
2023-05-10T04:00:59.946Z,41.78
2023-05-10T04:03:46.815Z,41.80
2023-05-10T04:06:33.974Z,42.08
2023-05-10T04:09:20.839Z,42.37
2023-05-10T04:12:10.110Z,42.35
2023-05-10T04:14:58.305Z,42.73
2023-05-10T04:17:45.365Z,42.48
2023-05-10T04:20:33.297Z,42.83
2023-05-10T04:23:20.003Z,42.92
2023-05-10T04:26:06.731Z,42.80
2023-05-10T04:28:53.426Z,43.11
2023-05-10T04:31:40.269Z,43.08
2023-05-10T04:34:26.976Z,43.48
2023-05-10T04:37:13.673Z,43.35
2023-05-10T04:40:01.135Z,43.37
2023-05-10T04:42:47.838Z,43.75
2023-05-10T04:45:34.584Z,43.56
2023-05-10T04:48:21.470Z,43.66
2023-05-10T04:51:08.202Z,43.69
2023-05-10T04:54:05.195Z,43.91
2023-05-10T04:56:53.052Z,44.17
2023-05-10T04:59:39.974Z,44.11
2023-05-10T05:02:26.739Z,44.18
2023-05-10T05:05:13.682Z,44.17
2023-05-10T05:08:00.378Z,44.28
2023-05-10T05:10:47.106Z,44.47
2023-05-10T05:13:33.868Z,44.70
2023-05-10T05:16:20.614Z,44.76
2023-05-10T05:19:07.327Z,44.86
2023-05-10T05:21:54.286Z,45.01
2023-05-10T05:24:41.010Z,45.13
2023-05-10T05:27:28.823Z,45.42
2023-05-10T05:30:15.870Z,45.05
2023-05-10T05:33:02.871Z,45.56
2023-05-10T05:35:51.773Z,47.69
2023-05-10T05:38:38.530Z,49.61
2023-05-10T05:41:25.599Z,49.99
2023-05-10T05:44:12.322Z,49.67
2023-05-10T05:46:59.022Z,49.33
2023-05-10T05:49:48.393Z,49.11
2023-05-10T05:52:35.061Z,49.47
2023-05-10T05:55:22.310Z,49.65
2023-05-10T05:58:08.975Z,49.43
2023-05-10T06:00:55.678Z,49.50
2023-05-10T06:03:42.550Z,49.44
2023-05-10T06:06:29.342Z,49.34
2023-05-10T06:09:16.104Z,49.47
2023-05-10T06:12:02.784Z,49.62
2023-05-10T06:14:49.516Z,49.63
2023-05-10T06:17:36.256Z,49.92
2023-05-10T06:20:22.958Z,49.91
2023-05-10T06:23:09.651Z,49.95
2023-05-10T06:25:56.303Z,50.17
2023-05-10T06:28:43.180Z,50.33
2023-05-10T06:31:29.896Z,50.25
2023-05-10T06:34:16.559Z,50.03
2023-05-10T06:37:04.551Z,50.21
2023-05-10T06:39:51.249Z,50.15
2023-05-10T06:42:38.023Z,50.45
2023-05-10T06:45:24.760Z,50.62
2023-05-10T06:48:11.586Z,50.78
2023-05-10T06:50:58.321Z,51.30
2023-05-10T06:53:44.999Z,51.23
2023-05-10T06:56:32.041Z,50.79
2023-05-10T06:59:20.206Z,51.02
2023-05-10T07:02:07.258Z,50.89
2023-05-10T07:04:54.264Z,50.73
2023-05-10T07:07:41.282Z,50.67
2023-05-10T07:10:27.986Z,50.92
2023-05-10T07:13:14.818Z,50.65
2023-05-10T07:16:02.984Z,50.96
2023-05-10T07:18:51.360Z,51.00
2023-05-10T07:21:38.439Z,50.96
2023-05-10T07:24:25.341Z,51.14
2023-05-10T07:27:12.018Z,50.99
2023-05-10T07:29:59.639Z,50.80
2023-05-10T07:32:46.384Z,51.16
2023-05-10T07:35:33.207Z,50.77
2023-05-10T07:38:19.900Z,50.94
2023-05-10T07:41:06.798Z,51.03
2023-05-10T07:43:53.506Z,50.83
2023-05-10T07:46:40.355Z,51.34
2023-05-10T07:49:27.113Z,51.77
2023-05-10T07:52:14.664Z,52.06
2023-05-10T07:55:01.439Z,51.84
2023-05-10T07:57:48.540Z,51.69
2023-05-10T08:00:35.361Z,51.67
2023-05-10T08:03:22.126Z,51.54
2023-05-10T08:06:08.823Z,51.49
2023-05-10T08:08:55.695Z,51.42
2023-05-10T08:11:42.461Z,51.17
2023-05-10T08:14:29.724Z,51.21
2023-05-10T08:17:17.688Z,51.10
2023-05-10T08:20:05.734Z,50.92
2023-05-10T08:22:52.405Z,50.93
2023-05-10T08:25:39.107Z,50.82
2023-05-10T08:28:25.802Z,50.83
2023-05-10T08:31:13.204Z,50.68
2023-05-10T08:33:59.954Z,50.52
2023-05-10T08:36:46.652Z,50.21
2023-05-10T08:39:36.385Z,49.78
2023-05-10T08:42:23.166Z,49.61
2023-05-10T08:45:10.310Z,49.67
2023-05-10T08:47:57.097Z,49.68
2023-05-10T08:50:46.757Z,49.72
2023-05-10T08:53:34.200Z,49.62
2023-05-10T08:56:21.301Z,49.36
2023-05-10T08:59:08.118Z,49.46
2023-05-10T09:01:55.037Z,49.51
2023-05-10T09:04:42.083Z,49.27
2023-05-10T09:07:28.862Z,49.30
2023-05-10T09:10:15.651Z,49.44
2023-05-10T09:13:02.389Z,49.55
2023-05-10T09:15:49.079Z,49.28
2023-05-10T09:18:35.798Z,49.31
2023-05-10T09:21:22.565Z,49.18
2023-05-10T09:24:09.339Z,49.41
2023-05-10T09:26:56.149Z,49.44
2023-05-10T09:29:43.438Z,49.26
2023-05-10T09:32:39.490Z,49.33
2023-05-10T09:35:29.438Z,49.26
2023-05-10T09:38:16.928Z,49.36
2023-05-10T09:41:03.640Z,49.35
2023-05-10T09:43:50.600Z,49.36
2023-05-10T09:46:37.963Z,49.37
2023-05-10T09:49:24.766Z,49.28
2023-05-10T09:52:11.688Z,49.14
2023-05-10T09:54:58.438Z,49.16
2023-05-10T09:57:45.178Z,49.15
2023-05-10T10:00:35.760Z,49.25
2023-05-10T10:03:22.478Z,49.21
2023-05-10T10:06:18.915Z,49.34
2023-05-10T10:09:13.639Z,49.38
2023-05-10T10:12:01.058Z,49.30
2023-05-10T10:14:48.912Z,49.19
2023-05-10T10:17:36.634Z,49.12
2023-05-10T10:20:23.742Z,49.07
2023-05-10T10:23:10.677Z,49.14
2023-05-10T10:25:57.591Z,49.33
2023-05-10T10:28:50.178Z,49.24
2023-05-10T10:31:57.186Z,48.96
2023-05-10T10:34:43.954Z,49.09
2023-05-10T10:37:57.481Z,48.93
2023-05-10T10:40:44.173Z,48.67
2023-05-10T10:43:31.305Z,48.73
2023-05-10T10:46:18.898Z,48.72
2023-05-10T10:49:11.879Z,48.61
2023-05-10T10:52:14.171Z,48.73
2023-05-10T10:55:09.245Z,48.33
2023-05-10T10:58:01.639Z,48.54
2023-05-10T11:00:48.703Z,48.37
2023-05-10T11:03:35.439Z,48.25
2023-05-10T11:06:35.345Z,48.44
2023-05-10T11:09:22.167Z,48.30
2023-05-10T11:12:09.394Z,48.17
2023-05-10T11:14:57.934Z,48.24
2023-05-10T11:17:44.744Z,48.19
2023-05-10T11:20:39.345Z,48.14
2023-05-10T11:23:30.629Z,48.17
2023-05-10T11:26:17.396Z,48.17
2023-05-10T11:29:05.876Z,48.00
2023-05-10T11:31:52.758Z,47.77
2023-05-10T11:34:39.508Z,48.15
2023-05-10T11:37:29.144Z,47.91
2023-05-10T11:40:16.020Z,48.10
2023-05-10T11:43:03.620Z,48.09
2023-05-10T11:45:50.364Z,48.09
2023-05-10T11:48:37.285Z,49.59
2023-05-10T11:51:24.469Z,52.17
2023-05-10T11:54:11.924Z,54.07
2023-05-10T11:56:58.653Z,53.65
2023-05-10T11:59:45.357Z,53.39
2023-05-10T12:02:32.257Z,54.60
2023-05-10T12:05:19.054Z,54.06
2023-05-10T12:08:15.303Z,54.06
2023-05-10T12:11:05.744Z,53.99
2023-05-10T12:13:52.694Z,53.85
2023-05-10T12:16:39.490Z,54.10
2023-05-10T12:19:26.181Z,53.84
2023-05-10T12:22:12.875Z,53.83
2023-05-10T12:24:59.612Z,53.88
2023-05-10T12:27:56.659Z,54.31
2023-05-10T12:30:43.388Z,54.28
2023-05-10T12:33:43.777Z,54.30
2023-05-10T12:36:30.679Z,54.38
2023-05-10T12:39:17.458Z,54.50
2023-05-10T12:42:04.217Z,54.45
2023-05-10T12:44:51.010Z,54.36
2023-05-10T12:47:38.412Z,54.28
2023-05-10T12:50:25.708Z,54.31
2023-05-10T12:53:12.730Z,54.41
2023-05-10T12:55:59.513Z,54.41
2023-05-10T12:58:49.332Z,54.42
2023-05-10T13:01:36.261Z,54.17
2023-05-10T13:04:23.075Z,54.31
2023-05-10T13:07:10.443Z,54.27
2023-05-10T13:09:57.192Z,54.40
2023-05-10T13:12:43.916Z,53.86
2023-05-10T13:15:32.814Z,54.17
2023-05-10T13:18:19.609Z,53.85
2023-05-10T13:21:06.744Z,54.01
2023-05-10T13:23:53.850Z,54.23
2023-05-10T13:26:41.181Z,54.01
2023-05-10T13:29:27.890Z,53.81
2023-05-10T13:32:14.620Z,53.88
2023-05-10T13:35:01.368Z,53.71
2023-05-10T13:37:48.125Z,54.02
2023-05-10T13:40:35.065Z,53.91
2023-05-10T13:43:21.771Z,53.97
2023-05-10T13:46:08.548Z,53.75
2023-05-10T13:48:57.903Z,53.55
2023-05-10T13:51:44.702Z,53.36
2023-05-10T13:54:32.583Z,53.27
2023-05-10T13:57:19.475Z,53.63
2023-05-10T14:00:06.921Z,53.63
2023-05-10T14:02:53.744Z,53.45
2023-05-10T14:05:40.746Z,53.78
2023-05-10T14:08:28.083Z,53.32
2023-05-10T14:11:14.914Z,53.47
2023-05-10T14:14:01.647Z,53.68
2023-05-10T14:16:48.438Z,53.46
2023-05-10T14:19:35.303Z,53.79
2023-05-10T14:22:22.168Z,53.79
2023-05-10T14:25:08.961Z,53.78
2023-05-10T14:27:55.787Z,53.48
2023-05-10T14:30:42.945Z,53.72
2023-05-10T14:33:29.742Z,53.84
2023-05-10T14:36:16.802Z,53.87
2023-05-10T14:39:03.907Z,53.70
2023-05-10T14:41:52.330Z,53.67
2023-05-10T14:44:39.123Z,53.91
2023-05-10T14:47:25.855Z,54.21
2023-05-10T14:50:18.923Z,53.95
2023-05-10T14:53:19.008Z,53.82
2023-05-10T14:56:06.028Z,53.91
2023-05-10T14:58:52.752Z,54.12
2023-05-10T15:01:42.243Z,54.33
2023-05-10T15:04:29.613Z,54.49
2023-05-10T15:07:18.400Z,54.30
2023-05-10T15:10:05.583Z,54.50
2023-05-10T15:12:52.397Z,54.58
2023-05-10T15:15:39.148Z,54.83
2023-05-10T15:18:25.923Z,54.26
2023-05-10T15:21:12.736Z,54.23
2023-05-10T15:23:59.437Z,54.66
2023-05-10T15:26:46.393Z,54.42
2023-05-10T15:29:33.490Z,54.49
2023-05-10T15:32:20.247Z,54.28
2023-05-10T15:35:08.509Z,54.41
2023-05-10T15:37:55.184Z,54.69
2023-05-10T15:40:41.965Z,54.66
2023-05-10T15:43:28.824Z,54.75
2023-05-10T15:46:15.736Z,54.52
2023-05-10T15:49:02.537Z,54.82
2023-05-10T15:51:49.418Z,54.68
2023-05-10T15:54:39.322Z,54.96
2023-05-10T15:57:26.112Z,54.94
2023-05-10T16:00:13.364Z,55.18
2023-05-10T16:03:00.289Z,55.09
2023-05-10T16:05:47.097Z,54.66
2023-05-10T16:08:33.980Z,55.05
2023-05-10T16:11:21.508Z,54.76
2023-05-10T16:14:08.305Z,54.96
2023-05-10T16:16:55.106Z,55.08
2023-05-10T16:19:41.912Z,54.90
2023-05-10T16:22:29.057Z,55.07
2023-05-10T16:25:15.954Z,54.83
2023-05-10T16:28:03.098Z,55.09
2023-05-10T16:30:49.857Z,55.06
2023-05-10T16:33:37.280Z,55.27
2023-05-10T16:36:24.297Z,55.27
2023-05-10T16:39:12.641Z,54.90
2023-05-10T16:41:59.711Z,55.01
2023-05-10T16:44:46.475Z,54.82
2023-05-10T16:47:33.650Z,55.20
2023-05-10T16:50:20.638Z,55.22
2023-05-10T16:53:07.439Z,55.27
2023-05-10T16:55:54.182Z,55.27
2023-05-10T16:58:40.860Z,55.33
2023-05-10T17:01:27.640Z,55.38
2023-05-10T17:04:14.406Z,55.40
2023-05-10T17:07:01.120Z,55.45
2023-05-10T17:09:47.862Z,55.52
2023-05-10T17:12:34.827Z,55.45
2023-05-10T17:15:21.738Z,55.49
2023-05-10T17:18:10.321Z,55.11
2023-05-10T17:20:57.393Z,55.37
2023-05-10T17:23:44.180Z,55.32
2023-05-10T17:26:30.916Z,55.75
2023-05-10T17:29:17.597Z,55.70
2023-05-10T17:32:04.451Z,55.53
2023-05-10T17:34:51.644Z,55.58
2023-05-10T17:37:38.325Z,55.85
2023-05-10T17:40:24.989Z,55.91
2023-05-10T17:43:11.708Z,56.18
2023-05-10T17:45:58.390Z,56.21
2023-05-10T17:48:47.228Z,56.56
2023-05-10T17:51:34.053Z,56.48
2023-05-10T17:54:20.757Z,56.23
2023-05-10T17:57:07.829Z,56.16
2023-05-10T17:59:54.493Z,56.48
2023-05-10T18:02:41.216Z,56.15
2023-05-10T18:05:28.341Z,56.46
2023-05-10T18:08:15.646Z,56.31
2023-05-10T18:11:02.418Z,56.17
2023-05-10T18:13:49.198Z,56.57
2023-05-10T18:16:36.035Z,56.19
2023-05-10T18:19:24.925Z,56.51
2023-05-10T18:22:11.714Z,56.36
2023-05-10T18:24:58.713Z,56.27
2023-05-10T18:27:45.435Z,56.21
2023-05-10T18:30:32.410Z,56.59
2023-05-10T18:33:19.163Z,56.29
2023-05-10T18:36:05.833Z,56.33
2023-05-10T18:38:52.540Z,56.17
2023-05-10T18:41:39.307Z,56.50
2023-05-10T18:44:26.989Z,56.40
2023-05-10T18:47:13.674Z,56.28
2023-05-10T18:50:00.584Z,56.42
2023-05-10T18:52:47.449Z,56.53
2023-05-10T18:55:34.214Z,56.57
2023-05-10T18:58:20.911Z,56.33
2023-05-10T19:01:08.894Z,56.36
2023-05-10T19:03:55.618Z,56.20
2023-05-10T19:06:42.333Z,56.50
2023-05-10T19:09:29.007Z,56.58
2023-05-10T19:12:15.780Z,56.21
2023-05-10T19:15:02.592Z,56.43
2023-05-10T19:17:50.292Z,56.24
2023-05-10T19:20:38.516Z,56.25
2023-05-10T19:23:29.127Z,56.35
2023-05-10T19:26:15.941Z,56.60
2023-05-10T19:29:04.102Z,56.44
2023-05-10T19:31:52.408Z,56.51
2023-05-10T19:34:39.273Z,56.60
2023-05-10T19:37:26.192Z,56.60
2023-05-10T19:40:14.913Z,56.65
2023-05-10T19:43:01.950Z,56.58
2023-05-10T19:45:48.703Z,56.61
2023-05-10T19:48:35.443Z,56.66
2023-05-10T19:51:22.293Z,56.81
2023-05-10T19:54:08.958Z,56.74
2023-05-10T19:56:55.699Z,56.94
2023-05-10T19:59:42.843Z,57.07
2023-05-10T20:02:29.960Z,56.96
2023-05-10T20:05:17.058Z,57.04
2023-05-10T20:08:03.980Z,57.23
2023-05-10T20:10:50.751Z,57.33
2023-05-10T20:13:37.661Z,57.27
2023-05-10T20:16:26.582Z,57.41
2023-05-10T20:19:13.852Z,57.41
2023-05-10T20:22:00.794Z,57.48
2023-05-10T20:24:48.149Z,57.57
2023-05-10T20:27:34.804Z,57.72
2023-05-10T20:30:21.554Z,57.67
2023-05-10T20:33:09.340Z,57.66
2023-05-10T20:35:56.121Z,57.76
2023-05-10T20:38:42.868Z,57.68
2023-05-10T20:41:29.626Z,57.61
2023-05-10T20:44:16.367Z,57.89
2023-05-10T20:47:03.093Z,57.79
2023-05-10T20:49:49.882Z,57.80
2023-05-10T20:52:36.603Z,57.84
2023-05-10T20:55:23.326Z,57.74
2023-05-10T20:58:10.429Z,57.82
2023-05-10T21:00:57.089Z,57.72
2023-05-10T21:03:43.830Z,57.69
2023-05-10T21:06:32.028Z,57.52
2023-05-10T21:09:18.830Z,57.57
2023-05-10T21:12:05.641Z,57.54
2023-05-10T21:14:52.407Z,57.45
2023-05-10T21:17:39.220Z,57.40
2023-05-10T21:20:25.993Z,57.54
2023-05-10T21:23:12.790Z,57.39
2023-05-10T21:25:59.468Z,57.39
2023-05-10T21:28:46.221Z,57.43
2023-05-10T21:31:33.009Z,57.36
2023-05-10T21:34:20.619Z,57.31
2023-05-10T21:37:07.348Z,57.30
2023-05-10T21:39:54.193Z,57.20
2023-05-10T21:42:40.866Z,57.38
2023-05-10T21:45:31.639Z,57.21
2023-05-10T21:48:18.368Z,57.16
2023-05-10T21:51:05.073Z,57.19
2023-05-10T21:53:53.575Z,57.31
2023-05-10T21:56:40.789Z,57.13
2023-05-10T21:59:27.514Z,57.13
2023-05-10T22:02:14.236Z,57.34
2023-05-10T22:05:01.410Z,57.24
2023-05-10T22:07:48.164Z,57.17
2023-05-10T22:10:34.932Z,57.23
2023-05-10T22:13:21.659Z,57.01
2023-05-10T22:16:08.340Z,57.13
2023-05-10T22:18:55.142Z,57.14
2023-05-10T22:21:41.846Z,57.09
2023-05-10T22:24:28.570Z,57.14
2023-05-10T22:27:15.263Z,57.30
2023-05-10T22:30:02.147Z,57.47
2023-05-10T22:32:48.990Z,57.07
2023-05-10T22:35:35.908Z,56.96
2023-05-10T22:38:22.669Z,57.17
2023-05-10T22:41:09.344Z,57.22
2023-05-10T22:43:55.995Z,57.22
2023-05-10T22:46:42.759Z,57.13
2023-05-10T22:49:29.651Z,57.20
2023-05-10T22:52:16.391Z,57.22
2023-05-10T22:55:03.203Z,57.36
2023-05-10T22:57:49.888Z,57.08
2023-05-10T23:00:36.656Z,57.37
2023-05-10T23:03:23.387Z,57.14
2023-05-10T23:06:10.159Z,57.22
2023-05-10T23:08:56.945Z,57.16
2023-05-10T23:11:43.628Z,57.13
2023-05-10T23:14:30.432Z,57.26
2023-05-10T23:17:17.081Z,57.10
2023-05-10T23:20:03.981Z,57.18
2023-05-10T23:22:50.702Z,56.99
2023-05-10T23:25:37.856Z,57.12
2023-05-10T23:28:24.556Z,57.09
2023-05-10T23:31:11.254Z,56.92
2023-05-10T23:33:57.981Z,56.91
2023-05-10T23:36:44.696Z,57.17
2023-05-10T23:39:31.887Z,57.21
2023-05-10T23:42:18.605Z,57.20
2023-05-10T23:45:05.461Z,56.94
2023-05-10T23:47:52.739Z,57.09
2023-05-10T23:50:43.998Z,57.37
2023-05-10T23:53:30.725Z,57.17
2023-05-10T23:56:17.572Z,57.12
2023-05-10T23:59:05.917Z,57.51
